41.8°F
Current conditions from King Hill
Updated every 5 minutes
 
  Friday October 24, 2014

Station Historical Data
Daily Summary for February 8, 2012 Units:  Both    English   Metric
« Previous Day
Next Day »
Daily Weekly Monthly Yearly Custom
  High: Low: Average:
Temperature: 31.1 °F /  -0.5 °C 6.3 °F /  -14.3 °C 20 °F /  -6.7 °C
Dew Point: 14.4 °F /  -9.8 °C 0.4 °F /  -17.6 °C 7.6 °F /  -13.6 °C
Humidity: 77% 39% 59%
Wind Speed: 9.0mph /  14.5km/h - 4.1mph /  6.6km/h
Wind Gust: 14.0mph /  22.5km/h - -
Wind- - SSW
Pressure: 30.28 in /  1025.3 hPa 30.02 in /  1016.5 hPa -
Precipitation: 0.00 in /  0 mm    
Historical Graphs
 
 
Tabular Data for February 8, 2012
Time Temperature Dew Point Pressure Wind Wind Speed Wind Gust Humidity Daily Rainfall
00:04 12.0 °F /  -11.1 °C 4.1 °F /  -15.5 °C 30.27in /  1024.9hPa Calm   2.0mph /  3.2km/h 70% 0.00in /  0mm
00:09 11.9 °F /  -11.2 °C 4.0 °F /  -15.6 °C 30.27in /  1024.9hPa Calm   2.0mph /  3.2km/h 70% 0.00in /  0mm
00:14 11.9 °F /  -11.2 °C 4.3 °F /  -15.4 °C 30.26in /  1024.6hPa Calm   1.0mph /  1.6km/h 71% 0.00in /  0mm
00:19 11.9 °F /  -11.2 °C 4.0 °F /  -15.6 °C 30.27in /  1024.9hPa Calm   2.0mph /  3.2km/h 70% 0.00in /  0mm
00:24 11.9 °F /  -11.2 °C 4.0 °F /  -15.6 °C 30.27in /  1024.9hPa NW 1.0mph /  1.6km/h 3.0mph /  4.8km/h 70% 0.00in /  0mm
00:29 11.8 °F /  -11.2 °C 3.6 °F /  -15.8 °C 30.27in /  1024.9hPa Calm   3.0mph /  4.8km/h 69% 0.00in /  0mm
00:34 11.9 °F /  -11.2 °C 3.7 °F /  -15.7 °C 30.27in /  1024.9hPa Calm   4.0mph /  6.4km/h 69% 0.00in /  0mm
00:39 11.9 °F /  -11.2 °C 3.7 °F /  -15.7 °C 30.27in /  1024.9hPa Calm   4.0mph /  6.4km/h 69% 0.00in /  0mm
00:44 11.8 °F /  -11.2 °C 3.9 °F /  -15.6 °C 30.27in /  1024.9hPa Calm   3.0mph /  4.8km/h 70% 0.00in /  0mm
00:49 11.6 °F /  -11.3 °C 3.4 °F /  -15.9 °C 30.27in /  1024.9hPa Calm   3.0mph /  4.8km/h 69% 0.00in /  0mm
00:54 11.4 °F /  -11.4 °C 3.2 °F /  -16 °C 30.27in /  1024.9hPa Calm   1.0mph /  1.6km/h 69% 0.00in /  0mm
00:59 11.3 °F /  -11.5 °C 3.1 °F /  -16.1 °C 30.27in /  1024.9hPa Calm     69% 0.00in /  0mm
01:04 11.1 °F /  -11.6 °C 3.2 °F /  -16 °C 30.27in /  1024.9hPa Calm     70% 0.00in /  0mm
01:09 11.0 °F /  -11.7 °C 3.1 °F /  -16.1 °C 30.27in /  1024.9hPa Calm   1.0mph /  1.6km/h 70% 0.00in /  0mm
01:14 10.8 °F /  -11.8 °C 2.9 °F /  -16.2 °C 30.27in /  1024.9hPa Calm   1.0mph /  1.6km/h 70% 0.00in /  0mm
01:19 10.6 °F /  -11.9 °C 2.7 °F /  -16.3 °C 30.27in /  1024.9hPa Calm     70% 0.00in /  0mm
01:24 10.5 °F /  -11.9 °C 2.7 °F /  -16.3 °C 30.27in /  1024.9hPa Calm     70% 0.00in /  0mm
01:29 10.6 °F /  -11.9 °C 2.7 °F /  -16.3 °C 30.27in /  1024.9hPa Calm     70% 0.00in /  0mm
01:34 10.5 °F /  -11.9 °C 2.7 °F /  -16.3 °C 30.27in /  1024.9hPa Calm     70% 0.00in /  0mm
01:39 10.3 °F /  -12.1 °C 2.5 °F /  -16.4 °C 30.27in /  1024.9hPa Calm     70% 0.00in /  0mm
01:44 10.1 °F /  -12.2 °C 2.6 °F /  -16.3 °C 30.28in /  1025.3hPa Calm     71% 0.00in /  0mm
01:49 10.1 °F /  -12.2 °C 2.6 °F /  -16.3 °C 30.27in /  1024.9hPa Calm     71% 0.00in /  0mm
01:54 10.1 °F /  -12.2 °C 2.3 °F /  -16.5 °C 30.27in /  1024.9hPa Calm     70% 0.00in /  0mm
01:59 10.1 °F /  -12.2 °C 2.6 °F /  -16.3 °C 30.27in /  1024.9hPa Calm     71% 0.00in /  0mm
02:04 9.9 °F /  -12.3 °C 2.4 °F /  -16.4 °C 30.27in /  1024.9hPa Calm     71% 0.00in /  0mm
02:09 9.4 °F /  -12.6 °C 2.2 °F /  -16.6 °C 30.27in /  1024.9hPa Calm     72% 0.00in /  0mm
02:14 9.5 °F /  -12.5 °C 2.3 °F /  -16.5 °C 30.27in /  1024.9hPa Calm     72% 0.00in /  0mm
02:19 9.5 °F /  -12.5 °C 2.6 °F /  -16.3 °C 30.27in /  1024.9hPa Calm   2.0mph /  3.2km/h 73% 0.00in /  0mm
02:24 10.0 °F /  -12.2 °C 2.8 °F /  -16.2 °C 30.27in /  1024.9hPa Calm   2.0mph /  3.2km/h 72% 0.00in /  0mm
02:29 10.4 °F /  -12 °C 2.9 °F /  -16.2 °C 30.27in /  1024.9hPa Calm   2.0mph /  3.2km/h 71% 0.00in /  0mm
02:34 10.0 °F /  -12.2 °C 2.5 °F /  -16.4 °C 30.27in /  1024.9hPa Calm     71% 0.00in /  0mm
02:39 9.8 °F /  -12.3 °C 2.6 °F /  -16.3 °C 30.27in /  1024.9hPa Calm     72% 0.00in /  0mm
02:49 9.9 °F /  -12.3 °C 2.7 °F /  -16.3 °C 30.27in /  1024.9hPa Calm     72% 0.00in /  0mm
02:54 9.6 °F /  -12.4 °C 2.1 °F /  -16.6 °C 30.27in /  1024.9hPa Calm     71% 0.00in /  0mm
02:59 9.2 °F /  -12.7 °C 2.0 °F /  -16.7 °C 30.27in /  1024.9hPa Calm     72% 0.00in /  0mm
03:04 8.8 °F /  -12.9 °C 1.6 °F /  -16.9 °C 30.27in /  1024.9hPa Calm     72% 0.00in /  0mm
03:09 8.8 °F /  -12.9 °C 1.6 °F /  -16.9 °C 30.27in /  1024.9hPa Calm     72% 0.00in /  0mm
03:14 8.6 °F /  -13 °C 1.7 °F /  -16.8 °C 30.27in /  1024.9hPa Calm     73% 0.00in /  0mm
03:19 8.2 °F /  -13.2 °C 1.3 °F /  -17.1 °C 30.26in /  1024.6hPa Calm     73% 0.00in /  0mm
03:24 7.9 °F /  -13.4 °C 1.0 °F /  -17.2 °C 30.26in /  1024.6hPa Calm     73% 0.00in /  0mm
03:29 7.6 °F /  -13.6 °C 1.0 °F /  -17.2 °C 30.26in /  1024.6hPa Calm   2.0mph /  3.2km/h 74% 0.00in /  0mm
03:39 7.3 °F /  -13.7 °C 0.8 °F /  -17.3 °C 30.26in /  1024.6hPa Calm     74% 0.00in /  0mm
03:44 7.1 °F /  -13.8 °C 0.6 °F /  -17.4 °C 30.26in /  1024.6hPa Calm     74% 0.00in /  0mm
03:49 7.1 °F /  -13.8 °C 0.6 °F /  -17.4 °C 30.26in /  1024.6hPa Calm     74% 0.00in /  0mm
03:54 7.1 °F /  -13.8 °C 0.6 °F /  -17.4 °C 30.26in /  1024.6hPa Calm     74% 0.00in /  0mm
03:59 6.9 °F /  -13.9 °C 0.7 °F /  -17.4 °C 30.26in /  1024.6hPa Calm     75% 0.00in /  0mm
04:04 6.7 °F /  -14.1 °C 0.5 °F /  -17.5 °C 30.26in /  1024.6hPa Calm     75% 0.00in /  0mm
04:09 6.6 °F /  -14.1 °C 0.6 °F /  -17.4 °C 30.26in /  1024.6hPa Calm     76% 0.00in /  0mm
04:14 6.5 °F /  -14.2 °C 0.5 °F /  -17.5 °C 30.26in /  1024.6hPa Calm     76% 0.00in /  0mm
04:19 6.4 °F /  -14.2 °C 0.5 °F /  -17.5 °C 30.26in /  1024.6hPa Calm     76% 0.00in /  0mm
04:24 6.3 °F /  -14.3 °C 0.6 °F /  -17.4 °C 30.26in /  1024.6hPa Calm   1.0mph /  1.6km/h 77% 0.00in /  0mm
04:29 6.7 °F /  -14.1 °C 1.0 °F /  -17.2 °C 30.26in /  1024.6hPa Calm   2.0mph /  3.2km/h 77% 0.00in /  0mm
04:34 7.4 °F /  -13.7 °C 1.4 °F /  -17 °C 30.26in /  1024.6hPa Calm   2.0mph /  3.2km/h 76% 0.00in /  0mm
04:39 7.6 °F /  -13.6 °C 1.3 °F /  -17.1 °C 30.26in /  1024.6hPa Calm     75% 0.00in /  0mm
04:44 7.5 °F /  -13.6 °C 1.2 °F /  -17.1 °C 30.26in /  1024.6hPa Calm     75% 0.00in /  0mm
04:49 7.3 °F /  -13.7 °C 1.0 °F /  -17.2 °C 30.26in /  1024.6hPa Calm   2.0mph /  3.2km/h 75% 0.00in /  0mm
04:54 7.4 °F /  -13.7 °C 1.1 °F /  -17.2 °C 30.26in /  1024.6hPa Calm   2.0mph /  3.2km/h 75% 0.00in /  0mm
04:59 7.6 °F /  -13.6 °C 1.3 °F /  -17.1 °C 30.26in /  1024.6hPa Calm   1.0mph /  1.6km/h 75% 0.00in /  0mm
05:04 7.6 °F /  -13.6 °C 1.0 °F /  -17.2 °C 30.26in /  1024.6hPa Calm     74% 0.00in /  0mm
05:09 7.5 °F /  -13.6 °C 0.9 °F /  -17.3 °C 30.26in /  1024.6hPa Calm     74% 0.00in /  0mm
05:14 7.7 °F /  -13.5 °C 0.9 °F /  -17.3 °C 30.26in /  1024.6hPa Calm     73% 0.00in /  0mm
05:19 7.7 °F /  -13.5 °C 0.9 °F /  -17.3 °C 30.26in /  1024.6hPa Calm     73% 0.00in /  0mm
05:24 7.8 °F /  -13.4 °C 0.9 °F /  -17.3 °C 30.26in /  1024.6hPa Calm     73% 0.00in /  0mm
05:29 7.6 °F /  -13.6 °C 0.8 °F /  -17.3 °C 30.26in /  1024.6hPa Calm     73% 0.00in /  0mm
05:34 7.6 °F /  -13.6 °C 0.8 °F /  -17.3 °C 30.26in /  1024.6hPa Calm     73% 0.00in /  0mm
05:39 7.5 °F /  -13.6 °C 0.7 °F /  -17.4 °C 30.26in /  1024.6hPa Calm     73% 0.00in /  0mm
05:44 7.3 °F /  -13.7 °C 0.5 °F /  -17.5 °C 30.26in /  1024.6hPa Calm     73% 0.00in /  0mm
05:49 7.1 °F /  -13.8 °C 0.6 °F /  -17.4 °C 30.26in /  1024.6hPa Calm     74% 0.00in /  0mm
05:54 6.9 °F /  -13.9 °C 0.4 °F /  -17.6 °C 30.26in /  1024.6hPa Calm   2.0mph /  3.2km/h 74% 0.00in /  0mm
05:59 6.9 °F /  -13.9 °C 0.4 °F /  -17.6 °C 30.26in /  1024.6hPa Calm   2.0mph /  3.2km/h 74% 0.00in /  0mm
06:04 6.9 °F /  -13.9 °C 0.4 °F /  -17.6 °C 30.26in /  1024.6hPa West 1.0mph /  1.6km/h 3.0mph /  4.8km/h 74% 0.00in /  0mm
06:09 7.3 °F /  -13.7 °C 0.8 °F /  -17.3 °C 30.26in /  1024.6hPa SW 1.0mph /  1.6km/h 3.0mph /  4.8km/h 74% 0.00in /  0mm
06:14 7.7 °F /  -13.5 °C 0.9 °F /  -17.3 °C 30.26in /  1024.6hPa SW 2.0mph /  3.2km/h 3.0mph /  4.8km/h 73% 0.00in /  0mm
06:19 8.2 °F /  -13.2 °C 1.0 °F /  -17.2 °C 30.26in /  1024.6hPa SW 2.0mph /  3.2km/h 3.0mph /  4.8km/h 72% 0.00in /  0mm
06:24 8.5 °F /  -13.1 °C 1.0 °F /  -17.2 °C 30.26in /  1024.6hPa SW 2.0mph /  3.2km/h 4.0mph /  6.4km/h 71% 0.00in /  0mm
06:29 8.8 °F /  -12.9 °C 1.0 °F /  -17.2 °C 30.26in /  1024.6hPa Calm   4.0mph /  6.4km/h 70% 0.00in /  0mm
06:34 9.0 °F /  -12.8 °C 0.9 °F /  -17.3 °C 30.26in /  1024.6hPa SW 1.0mph /  1.6km/h 3.0mph /  4.8km/h 69% 0.00in /  0mm
06:39 9.3 °F /  -12.6 °C 0.9 °F /  -17.3 °C 30.26in /  1024.6hPa SW 2.0mph /  3.2km/h 3.0mph /  4.8km/h 68% 0.00in /  0mm
06:44 9.5 °F /  -12.5 °C 1.1 °F /  -17.2 °C 30.26in /  1024.6hPa SW 2.0mph /  3.2km/h 3.0mph /  4.8km/h 68% 0.00in /  0mm
06:49 9.5 °F /  -12.5 °C 1.1 °F /  -17.2 °C 30.27in /  1024.9hPa SW 1.0mph /  1.6km/h 3.0mph /  4.8km/h 68% 0.00in /  0mm
06:54 9.6 °F /  -12.4 °C 1.2 °F /  -17.1 °C 30.27in /  1024.9hPa SW 2.0mph /  3.2km/h 4.0mph /  6.4km/h 68% 0.00in /  0mm
06:59 9.5 °F /  -12.5 °C 1.1 °F /  -17.2 °C 30.27in /  1024.9hPa SW 2.0mph /  3.2km/h 4.0mph /  6.4km/h 68% 0.00in /  0mm
07:04 9.4 °F /  -12.6 °C 1.0 °F /  -17.2 °C 30.27in /  1024.9hPa SW 2.0mph /  3.2km/h 4.0mph /  6.4km/h 68% 0.00in /  0mm
07:09 9.4 °F /  -12.6 °C 1.0 °F /  -17.2 °C 30.27in /  1024.9hPa SSW 2.0mph /  3.2km/h 5.0mph /  8km/h 68% 0.00in /  0mm
07:14 10.0 °F /  -12.2 °C 1.2 °F /  -17.1 °C 30.27in /  1024.9hPa SSW 3.0mph /  4.8km/h 6.0mph /  9.7km/h 67% 0.00in /  0mm
07:19 10.5 °F /  -11.9 °C 1.4 °F /  -17 °C 30.27in /  1024.9hPa SSW 3.0mph /  4.8km/h 7.0mph /  11.3km/h 66% 0.00in /  0mm
07:24 10.5 °F /  -11.9 °C 1.4 °F /  -17 °C 30.27in /  1024.9hPa SSW 3.0mph /  4.8km/h 7.0mph /  11.3km/h 66% 0.00in /  0mm
07:29 10.4 °F /  -12 °C 1.6 °F /  -16.9 °C 30.27in /  1024.9hPa SSW 3.0mph /  4.8km/h 6.0mph /  9.7km/h 67% 0.00in /  0mm
07:34 10.5 °F /  -11.9 °C 2.0 °F /  -16.7 °C 30.27in /  1024.9hPa SSW 3.0mph /  4.8km/h 6.0mph /  9.7km/h 68% 0.00in /  0mm
07:39 10.8 °F /  -11.8 °C 2.3 °F /  -16.5 °C 30.27in /  1024.9hPa SSW 3.0mph /  4.8km/h 7.0mph /  11.3km/h 68% 0.00in /  0mm
07:44 11.0 °F /  -11.7 °C 2.2 °F /  -16.6 °C 30.27in /  1024.9hPa SSW 3.0mph /  4.8km/h 7.0mph /  11.3km/h 67% 0.00in /  0mm
07:49 11.3 °F /  -11.5 °C 2.8 °F /  -16.2 °C 30.27in /  1024.9hPa SSW 2.0mph /  3.2km/h 7.0mph /  11.3km/h 68% 0.00in /  0mm
07:54 11.4 °F /  -11.4 °C 2.9 °F /  -16.2 °C 30.27in /  1024.9hPa SSW 3.0mph /  4.8km/h 8.0mph /  12.9km/h 68% 0.00in /  0mm
07:59 11.7 °F /  -11.3 °C 3.2 °F /  -16 °C 30.27in /  1024.9hPa SSW 4.0mph /  6.4km/h 8.0mph /  12.9km/h 68% 0.00in /  0mm
08:04 12.1 °F /  -11.1 °C 3.6 °F /  -15.8 °C 30.27in /  1024.9hPa SSW 3.0mph /  4.8km/h 8.0mph /  12.9km/h 68% 0.00in /  0mm
08:09 12.3 °F /  -10.9 °C 3.4 °F /  -15.9 °C 30.27in /  1024.9hPa SSW 4.0mph /  6.4km/h 8.0mph /  12.9km/h 67% 0.00in /  0mm
08:14 12.7 °F /  -10.7 °C 3.8 °F /  -15.7 °C 30.27in /  1024.9hPa SSW 3.0mph /  4.8km/h 8.0mph /  12.9km/h 67% 0.00in /  0mm
08:19 13.0 °F /  -10.6 °C 4.1 °F /  -15.5 °C 30.27in /  1024.9hPa SSW 4.0mph /  6.4km/h 7.0mph /  11.3km/h 67% 0.00in /  0mm
08:24 13.4 °F /  -10.3 °C 4.5 °F /  -15.3 °C 30.27in /  1024.9hPa SSW 3.0mph /  4.8km/h 7.0mph /  11.3km/h 67% 0.00in /  0mm
08:29 13.9 °F /  -10.1 °C 4.6 °F /  -15.2 °C 30.27in /  1024.9hPa SSW 4.0mph /  6.4km/h 7.0mph /  11.3km/h 66% 0.00in /  0mm
08:34 14.5 °F /  -9.7 °C 4.5 °F /  -15.3 °C 30.27in /  1024.9hPa SSW 5.0mph /  8km/h 7.0mph /  11.3km/h 64% 0.00in /  0mm
08:39 14.8 °F /  -9.6 °C 4.8 °F /  -15.1 °C 30.27in /  1024.9hPa SSW 3.0mph /  4.8km/h 11.0mph /  17.7km/h 64% 0.00in /  0mm
08:44 15.1 °F /  -9.4 °C 5.1 °F /  -14.9 °C 30.27in /  1024.9hPa SSW 3.0mph /  4.8km/h 11.0mph /  17.7km/h 64% 0.00in /  0mm
08:49 15.6 °F /  -9.1 °C 5.6 °F /  -14.7 °C 30.27in /  1024.9hPa SSW 4.0mph /  6.4km/h 8.0mph /  12.9km/h 64% 0.00in /  0mm
08:54 16.0 °F /  -8.9 °C 5.6 °F /  -14.7 °C 30.27in /  1024.9hPa SSW 6.0mph /  9.7km/h 11.0mph /  17.7km/h 63% 0.00in /  0mm
08:59 16.4 °F /  -8.7 °C 5.7 °F /  -14.6 °C 30.27in /  1024.9hPa SSW 6.0mph /  9.7km/h 12.0mph /  19.3km/h 62% 0.00in /  0mm
09:04 17.1 °F /  -8.3 °C 6.3 °F /  -14.3 °C 30.27in /  1024.9hPa SSW 4.0mph /  6.4km/h 12.0mph /  19.3km/h 62% 0.00in /  0mm
09:09 17.5 °F /  -8.1 °C 6.3 °F /  -14.3 °C 30.27in /  1024.9hPa SW 4.0mph /  6.4km/h 10.0mph /  16.1km/h 61% 0.00in /  0mm
09:14 18.3 °F /  -7.6 °C 7.1 °F /  -13.8 °C 30.27in /  1024.9hPa SSW 4.0mph /  6.4km/h 10.0mph /  16.1km/h 61% 0.00in /  0mm
09:19 18.7 °F /  -7.4 °C 6.7 °F /  -14.1 °C 30.27in /  1024.9hPa SSW 5.0mph /  8km/h 10.0mph /  16.1km/h 59% 0.00in /  0mm
09:24 19.0 °F /  -7.2 °C 7.0 °F /  -13.9 °C 30.27in /  1024.9hPa SSW 6.0mph /  9.7km/h 11.0mph /  17.7km/h 59% 0.00in /  0mm
09:29 19.2 °F /  -7.1 °C 7.2 °F /  -13.8 °C 30.27in /  1024.9hPa SSW 5.0mph /  8km/h 11.0mph /  17.7km/h 59% 0.00in /  0mm
09:34 19.7 °F /  -6.8 °C 7.3 °F /  -13.7 °C 30.26in /  1024.6hPa SSW 5.0mph /  8km/h 10.0mph /  16.1km/h 58% 0.00in /  0mm
09:39 19.7 °F /  -6.8 °C 7.3 °F /  -13.7 °C 30.26in /  1024.6hPa SW 4.0mph /  6.4km/h 11.0mph /  17.7km/h 58% 0.00in /  0mm
09:44 19.8 °F /  -6.8 °C 7.0 °F /  -13.9 °C 30.26in /  1024.6hPa SW 6.0mph /  9.7km/h 13.0mph /  20.9km/h 57% 0.00in /  0mm
09:49 19.7 °F /  -6.8 °C 6.5 °F /  -14.2 °C 30.26in /  1024.6hPa SW 9.0mph /  14.5km/h 13.0mph /  20.9km/h 56% 0.00in /  0mm
09:54 19.8 °F /  -6.8 °C 6.6 °F /  -14.1 °C 30.26in /  1024.6hPa SW 6.0mph /  9.7km/h 12.0mph /  19.3km/h 56% 0.00in /  0mm
09:59 20.4 °F /  -6.4 °C 7.6 °F /  -13.6 °C 30.26in /  1024.6hPa SW 6.0mph /  9.7km/h 12.0mph /  19.3km/h 57% 0.00in /  0mm
10:04 20.7 °F /  -6.3 °C 7.1 °F /  -13.8 °C 30.26in /  1024.6hPa SSW 4.0mph /  6.4km/h 12.0mph /  19.3km/h 55% 0.00in /  0mm
10:09 21.2 °F /  -6 °C 7.5 °F /  -13.6 °C 30.26in /  1024.6hPa SSW 5.0mph /  8km/h 11.0mph /  17.7km/h 55% 0.00in /  0mm
10:14 21.7 °F /  -5.7 °C 7.6 °F /  -13.6 °C 30.25in /  1024.3hPa SSW 5.0mph /  8km/h 10.0mph /  16.1km/h 54% 0.00in /  0mm
10:19 22.4 °F /  -5.3 °C 7.8 °F /  -13.4 °C 30.25in /  1024.3hPa SW 4.0mph /  6.4km/h 10.0mph /  16.1km/h 53% 0.00in /  0mm
10:25 22.7 °F /  -5.2 °C 7.7 °F /  -13.5 °C 30.25in /  1024.3hPa SSW 4.0mph /  6.4km/h 8.0mph /  12.9km/h 52% 0.00in /  0mm
10:34 23.7 °F /  -4.6 °C 7.8 °F /  -13.4 °C 30.24in /  1023.9hPa SSW 4.0mph /  6.4km/h 8.0mph /  12.9km/h 50% 0.00in /  0mm
10:39 23.7 °F /  -4.6 °C 7.8 °F /  -13.4 °C 30.24in /  1023.9hPa SSW 4.0mph /  6.4km/h 7.0mph /  11.3km/h 50% 0.00in /  0mm
10:44 24.1 °F /  -4.4 °C 8.1 °F /  -13.3 °C 30.23in /  1023.6hPa SSW 2.0mph /  3.2km/h 7.0mph /  11.3km/h 50% 0.00in /  0mm
10:49 24.6 °F /  -4.1 °C 8.6 °F /  -13 °C 30.23in /  1023.6hPa SSW 4.0mph /  6.4km/h 7.0mph /  11.3km/h 50% 0.00in /  0mm
10:54 24.5 °F /  -4.2 °C 8.5 °F /  -13.1 °C 30.23in /  1023.6hPa SSW 5.0mph /  8km/h 8.0mph /  12.9km/h 50% 0.00in /  0mm
10:59 24.6 °F /  -4.1 °C 8.6 °F /  -13 °C 30.22in /  1023.2hPa SSW 5.0mph /  8km/h 9.0mph /  14.5km/h 50% 0.00in /  0mm
11:04 24.9 °F /  -3.9 °C 9.3 °F /  -12.6 °C 30.22in /  1023.2hPa SSW 3.0mph /  4.8km/h 9.0mph /  14.5km/h 51% 0.00in /  0mm
11:09 25.0 °F /  -3.9 °C 9.0 °F /  -12.8 °C 30.22in /  1023.2hPa SSW 4.0mph /  6.4km/h 7.0mph /  11.3km/h 50% 0.00in /  0mm
11:14 25.3 °F /  -3.7 °C 8.8 °F /  -12.9 °C 30.22in /  1023.2hPa SSW 3.0mph /  4.8km/h 7.0mph /  11.3km/h 49% 0.00in /  0mm
11:19 25.3 °F /  -3.7 °C 8.3 °F /  -13.2 °C 30.21in /  1022.9hPa SSW 5.0mph /  8km/h 8.0mph /  12.9km/h 48% 0.00in /  0mm
11:25 25.5 °F /  -3.6 °C 9.0 °F /  -12.8 °C 30.21in /  1022.9hPa SW 5.0mph /  8km/h 8.0mph /  12.9km/h 49% 0.00in /  0mm
11:34 26.0 °F /  -3.3 °C 9.0 °F /  -12.8 °C 30.20in /  1022.6hPa SSW 5.0mph /  8km/h 8.0mph /  12.9km/h 48% 0.00in /  0mm
11:40 26.1 °F /  -3.3 °C 9.5 °F /  -12.5 °C 30.20in /  1022.6hPa SSW 4.0mph /  6.4km/h 11.0mph /  17.7km/h 49% 0.00in /  0mm
11:50 26.1 °F /  -3.3 °C 9.1 °F /  -12.7 °C 30.19in /  1022.2hPa South 5.0mph /  8km/h 8.0mph /  12.9km/h 48% 0.00in /  0mm
11:59 26.6 °F /  -3 °C 9.5 °F /  -12.5 °C 30.19in /  1022.2hPa SSW 3.0mph /  4.8km/h 8.0mph /  12.9km/h 48% 0.00in /  0mm
12:04 27.1 °F /  -2.7 °C 9.5 °F /  -12.5 °C 30.18in /  1021.9hPa South 4.0mph /  6.4km/h 7.0mph /  11.3km/h 47% 0.00in /  0mm
12:09 27.1 °F /  -2.7 °C 9.5 °F /  -12.5 °C 30.19in /  1022.2hPa SSW 4.0mph /  6.4km/h 8.0mph /  12.9km/h 47% 0.00in /  0mm
12:14 27.1 °F /  -2.7 °C 9.5 °F /  -12.5 °C 30.18in /  1021.9hPa SSW 3.0mph /  4.8km/h 8.0mph /  12.9km/h 47% 0.00in /  0mm
12:19 27.5 °F /  -2.5 °C 9.4 °F /  -12.6 °C 30.18in /  1021.9hPa SSW 5.0mph /  8km/h 10.0mph /  16.1km/h 46% 0.00in /  0mm
12:24 27.6 °F /  -2.4 °C 10.0 °F /  -12.2 °C 30.17in /  1021.6hPa SW 4.0mph /  6.4km/h 10.0mph /  16.1km/h 47% 0.00in /  0mm
12:29 27.8 °F /  -2.3 °C 9.2 °F /  -12.7 °C 30.17in /  1021.6hPa SSW 4.0mph /  6.4km/h 9.0mph /  14.5km/h 45% 0.00in /  0mm
12:34 28.1 °F /  -2.2 °C 9.5 °F /  -12.5 °C 30.17in /  1021.6hPa SW 4.0mph /  6.4km/h 7.0mph /  11.3km/h 45% 0.00in /  0mm
12:39 28.5 °F /  -1.9 °C 9.8 °F /  -12.3 °C 30.17in /  1021.6hPa SW 2.0mph /  3.2km/h 7.0mph /  11.3km/h 45% 0.00in /  0mm
12:44 28.6 °F /  -1.9 °C 10.4 °F /  -12 °C 30.17in /  1021.6hPa SW 3.0mph /  4.8km/h 10.0mph /  16.1km/h 46% 0.00in /  0mm
12:49 28.5 °F /  -1.9 °C 9.3 °F /  -12.6 °C 30.16in /  1021.2hPa SSW 6.0mph /  9.7km/h 10.0mph /  16.1km/h 44% 0.00in /  0mm
12:54 28.9 °F /  -1.7 °C 9.7 °F /  -12.4 °C 30.16in /  1021.2hPa SW 4.0mph /  6.4km/h 10.0mph /  16.1km/h 44% 0.00in /  0mm
12:59 29.0 °F /  -1.7 °C 9.8 °F /  -12.3 °C 30.16in /  1021.2hPa SSW 4.0mph /  6.4km/h 10.0mph /  16.1km/h 44% 0.00in /  0mm
13:04 29.5 °F /  -1.4 °C 10.3 °F /  -12.1 °C 30.16in /  1021.2hPa SSW 4.0mph /  6.4km/h 9.0mph /  14.5km/h 44% 0.00in /  0mm
13:09 28.9 °F /  -1.7 °C 8.7 °F /  -12.9 °C 30.15in /  1020.9hPa SSW 6.0mph /  9.7km/h 10.0mph /  16.1km/h 42% 0.00in /  0mm
13:14 28.3 °F /  -2.1 °C 8.1 °F /  -13.3 °C 30.15in /  1020.9hPa SSW 7.0mph /  11.3km/h 11.0mph /  17.7km/h 42% 0.00in /  0mm
13:19 28.3 °F /  -2.1 °C 8.1 °F /  -13.3 °C 30.15in /  1020.9hPa SSW 7.0mph /  11.3km/h 11.0mph /  17.7km/h 42% 0.00in /  0mm
13:24 28.4 °F /  -2 °C 9.3 °F /  -12.6 °C 30.14in /  1020.5hPa SW 3.0mph /  4.8km/h 9.0mph /  14.5km/h 44% 0.00in /  0mm
13:29 28.7 °F /  -1.8 °C 8.5 °F /  -13.1 °C 30.14in /  1020.5hPa South 5.0mph /  8km/h 9.0mph /  14.5km/h 42% 0.00in /  0mm
13:34 28.8 °F /  -1.8 °C 8.6 °F /  -13 °C 30.14in /  1020.5hPa SW 4.0mph /  6.4km/h 9.0mph /  14.5km/h 42% 0.00in /  0mm
13:39 29.2 °F /  -1.6 °C 8.9 °F /  -12.8 °C 30.13in /  1020.2hPa SSW 6.0mph /  9.7km/h 9.0mph /  14.5km/h 42% 0.00in /  0mm
13:44 29.2 °F /  -1.6 °C 8.9 °F /  -12.8 °C 30.13in /  1020.2hPa SSW 6.0mph /  9.7km/h 10.0mph /  16.1km/h 42% 0.00in /  0mm
13:49 29.2 °F /  -1.6 °C 9.5 °F /  -12.5 °C 30.13in /  1020.2hPa SSW 6.0mph /  9.7km/h 12.0mph /  19.3km/h 43% 0.00in /  0mm
13:54 29.3 °F /  -1.5 °C 8.5 °F /  -13.1 °C 30.12in /  1019.9hPa SSW 5.0mph /  8km/h 12.0mph /  19.3km/h 41% 0.00in /  0mm
13:59 29.8 °F /  -1.2 °C 9.5 °F /  -12.5 °C 30.12in /  1019.9hPa SSW 4.0mph /  6.4km/h 12.0mph /  19.3km/h 42% 0.00in /  0mm
14:04 29.9 °F /  -1.2 °C 8.5 °F /  -13.1 °C 30.11in /  1019.5hPa SW 6.0mph /  9.7km/h 10.0mph /  16.1km/h 40% 0.00in /  0mm
14:10 30.0 °F /  -1.1 °C 8.6 °F /  -13 °C 30.11in /  1019.5hPa SW 8.0mph /  12.9km/h 12.0mph /  19.3km/h 40% 0.00in /  0mm
14:19 30.3 °F /  -0.9 °C 9.4 °F /  -12.6 °C 30.11in /  1019.5hPa SSW 6.0mph /  9.7km/h 10.0mph /  16.1km/h 41% 0.00in /  0mm
14:24 30.3 °F /  -0.9 °C 9.4 °F /  -12.6 °C 30.10in /  1019.2hPa SW 3.0mph /  4.8km/h 9.0mph /  14.5km/h 41% 0.00in /  0mm
14:29 30.6 °F /  -0.8 °C 9.1 °F /  -12.7 °C 30.11in /  1019.5hPa WSW 5.0mph /  8km/h 9.0mph /  14.5km/h 40% 0.00in /  0mm
14:34 30.7 °F /  -0.7 °C 9.8 °F /  -12.3 °C 30.11in /  1019.5hPa SW 6.0mph /  9.7km/h 12.0mph /  19.3km/h 41% 0.00in /  0mm
14:39 30.5 °F /  -0.8 °C 9.0 °F /  -12.8 °C 30.10in /  1019.2hPa SW 5.0mph /  8km/h 12.0mph /  19.3km/h 40% 0.00in /  0mm
14:44 30.5 °F /  -0.8 °C 8.5 °F /  -13.1 °C 30.10in /  1019.2hPa SSW 6.0mph /  9.7km/h 9.0mph /  14.5km/h 39% 0.00in /  0mm
14:49 30.6 °F /  -0.8 °C 8.6 °F /  -13 °C 30.10in /  1019.2hPa SSW 6.0mph /  9.7km/h 10.0mph /  16.1km/h 39% 0.00in /  0mm
14:54 30.5 °F /  -0.8 °C 8.5 °F /  -13.1 °C 30.10in /  1019.2hPa SSW 5.0mph /  8km/h 10.0mph /  16.1km/h 39% 0.00in /  0mm
14:59 30.9 °F /  -0.6 °C 8.8 °F /  -12.9 °C 30.10in /  1019.2hPa SW 3.0mph /  4.8km/h 9.0mph /  14.5km/h 39% 0.00in /  0mm
15:04 31.1 °F /  -0.5 °C 9.0 °F /  -12.8 °C 30.10in /  1019.2hPa SW 4.0mph /  6.4km/h 9.0mph /  14.5km/h 39% 0.00in /  0mm
15:09 31.1 °F /  -0.5 °C 9.0 °F /  -12.8 °C 30.10in /  1019.2hPa SSW 5.0mph /  8km/h 10.0mph /  16.1km/h 39% 0.00in /  0mm
15:14 30.8 °F /  -0.7 °C 8.7 °F /  -12.9 °C 30.09in /  1018.8hPa SSW 7.0mph /  11.3km/h 11.0mph /  17.7km/h 39% 0.00in /  0mm
15:19 30.5 °F /  -0.8 °C 9.0 °F /  -12.8 °C 30.09in /  1018.8hPa SSW 5.0mph /  8km/h 11.0mph /  17.7km/h 40% 0.00in /  0mm
15:24 30.5 °F /  -0.8 °C 9.0 °F /  -12.8 °C 30.09in /  1018.8hPa SSW 6.0mph /  9.7km/h 12.0mph /  19.3km/h 40% 0.00in /  0mm
15:29 30.6 °F /  -0.8 °C 10.2 °F /  -12.1 °C 30.09in /  1018.8hPa SSW 6.0mph /  9.7km/h 12.0mph /  19.3km/h 42% 0.00in /  0mm
15:34 30.9 °F /  -0.6 °C 9.9 °F /  -12.3 °C 30.08in /  1018.5hPa SSW 6.0mph /  9.7km/h 11.0mph /  17.7km/h 41% 0.00in /  0mm
15:39 31.0 °F /  -0.6 °C 10.0 °F /  -12.2 °C 30.08in /  1018.5hPa SSW 5.0mph /  8km/h 10.0mph /  16.1km/h 41% 0.00in /  0mm
15:49 30.9 °F /  -0.6 °C 11.0 °F /  -11.7 °C 30.08in /  1018.5hPa SW 4.0mph /  6.4km/h 12.0mph /  19.3km/h 43% 0.00in /  0mm
15:54 31.0 °F /  -0.6 °C 11.1 °F /  -11.6 °C 30.08in /  1018.5hPa SW 6.0mph /  9.7km/h 9.0mph /  14.5km/h 43% 0.00in /  0mm
15:59 30.8 °F /  -0.7 °C 10.9 °F /  -11.7 °C 30.08in /  1018.5hPa SSW 7.0mph /  11.3km/h 11.0mph /  17.7km/h 43% 0.00in /  0mm
16:04 30.7 °F /  -0.7 °C 11.4 °F /  -11.4 °C 30.08in /  1018.5hPa SSW 6.0mph /  9.7km/h 11.0mph /  17.7km/h 44% 0.00in /  0mm
16:09 30.6 °F /  -0.8 °C 11.3 °F /  -11.5 °C 30.08in /  1018.5hPa SSW 5.0mph /  8km/h 12.0mph /  19.3km/h 44% 0.00in /  0mm
16:14 30.7 °F /  -0.7 °C 11.9 °F /  -11.2 °C 30.07in /  1018.2hPa SSW 4.0mph /  6.4km/h 12.0mph /  19.3km/h 45% 0.00in /  0mm
16:19 30.5 °F /  -0.8 °C 11.2 °F /  -11.6 °C 30.07in /  1018.2hPa SSW 5.0mph /  8km/h 10.0mph /  16.1km/h 44% 0.00in /  0mm
16:24 30.1 °F /  -1.1 °C 11.3 °F /  -11.5 °C 30.07in /  1018.2hPa SSW 4.0mph /  6.4km/h 10.0mph /  16.1km/h 45% 0.00in /  0mm
16:29 29.9 °F /  -1.2 °C 11.6 °F /  -11.3 °C 30.07in /  1018.2hPa SSW 4.0mph /  6.4km/h 10.0mph /  16.1km/h 46% 0.00in /  0mm
16:34 29.7 °F /  -1.3 °C 11.4 °F /  -11.4 °C 30.07in /  1018.2hPa SSW 3.0mph /  4.8km/h 7.0mph /  11.3km/h 46% 0.00in /  0mm
16:39 29.3 °F /  -1.5 °C 11.6 °F /  -11.3 °C 30.07in /  1018.2hPa SSW 2.0mph /  3.2km/h 8.0mph /  12.9km/h 47% 0.00in /  0mm
16:44 29.0 °F /  -1.7 °C 11.3 °F /  -11.5 °C 30.07in /  1018.2hPa SSW 4.0mph /  6.4km/h 8.0mph /  12.9km/h 47% 0.00in /  0mm
16:49 28.9 °F /  -1.7 °C 11.2 °F /  -11.6 °C 30.07in /  1018.2hPa SW 4.0mph /  6.4km/h 9.0mph /  14.5km/h 47% 0.00in /  0mm
16:54 28.8 °F /  -1.8 °C 11.6 °F /  -11.3 °C 30.06in /  1017.8hPa SSW 4.0mph /  6.4km/h 9.0mph /  14.5km/h 48% 0.00in /  0mm
16:59 28.5 °F /  -1.9 °C 11.3 °F /  -11.5 °C 30.06in /  1017.8hPa SSW 3.0mph /  4.8km/h 8.0mph /  12.9km/h 48% 0.00in /  0mm
17:04 28.3 °F /  -2.1 °C 11.1 °F /  -11.6 °C 30.06in /  1017.8hPa SSW 4.0mph /  6.4km/h 10.0mph /  16.1km/h 48% 0.00in /  0mm
17:09 28.1 °F /  -2.2 °C 10.9 °F /  -11.7 °C 30.06in /  1017.8hPa SW 6.0mph /  9.7km/h 13.0mph /  20.9km/h 48% 0.00in /  0mm
17:14 28.1 °F /  -2.2 °C 10.9 °F /  -11.7 °C 30.06in /  1017.8hPa SSW 6.0mph /  9.7km/h 13.0mph /  20.9km/h 48% 0.00in /  0mm
17:19 28.0 °F /  -2.2 °C 10.8 °F /  -11.8 °C 30.06in /  1017.8hPa SSW 5.0mph /  8km/h 11.0mph /  17.7km/h 48% 0.00in /  0mm
17:24 27.8 °F /  -2.3 °C 10.6 °F /  -11.9 °C 30.06in /  1017.8hPa SW 4.0mph /  6.4km/h 12.0mph /  19.3km/h 48% 0.00in /  0mm
17:29 27.6 °F /  -2.4 °C 10.5 °F /  -11.9 °C 30.06in /  1017.8hPa SSW 5.0mph /  8km/h 12.0mph /  19.3km/h 48% 0.00in /  0mm
17:34 27.6 °F /  -2.4 °C 10.5 °F /  -11.9 °C 30.06in /  1017.8hPa SSW 6.0mph /  9.7km/h 11.0mph /  17.7km/h 48% 0.00in /  0mm
17:39 27.5 °F /  -2.5 °C 10.8 °F /  -11.8 °C 30.06in /  1017.8hPa SW 6.0mph /  9.7km/h 11.0mph /  17.7km/h 49% 0.00in /  0mm
17:44 27.4 °F /  -2.6 °C 10.7 °F /  -11.8 °C 30.06in /  1017.8hPa SSW 5.0mph /  8km/h 9.0mph /  14.5km/h 49% 0.00in /  0mm
17:49 27.2 °F /  -2.7 °C 10.6 °F /  -11.9 °C 30.06in /  1017.8hPa SSW 5.0mph /  8km/h 9.0mph /  14.5km/h 49% 0.00in /  0mm
17:54 27.0 °F /  -2.8 °C 10.8 °F /  -11.8 °C 30.06in /  1017.8hPa SW 2.0mph /  3.2km/h 9.0mph /  14.5km/h 50% 0.00in /  0mm
17:59 26.7 °F /  -2.9 °C 11.0 °F /  -11.7 °C 30.06in /  1017.8hPa SSW 3.0mph /  4.8km/h 6.0mph /  9.7km/h 51% 0.00in /  0mm
18:04 26.5 °F /  -3.1 °C 10.8 °F /  -11.8 °C 30.05in /  1017.5hPa SSW 5.0mph /  8km/h 9.0mph /  14.5km/h 51% 0.00in /  0mm
18:09 26.6 °F /  -3 °C 11.3 °F /  -11.5 °C 30.05in /  1017.5hPa SW 5.0mph /  8km/h 9.0mph /  14.5km/h 52% 0.00in /  0mm
18:14 26.7 °F /  -2.9 °C 11.4 °F /  -11.4 °C 30.05in /  1017.5hPa SSW 6.0mph /  9.7km/h 9.0mph /  14.5km/h 52% 0.00in /  0mm
18:19 26.7 °F /  -2.9 °C 11.4 °F /  -11.4 °C 30.05in /  1017.5hPa SW 6.0mph /  9.7km/h 10.0mph /  16.1km/h 52% 0.00in /  0mm
18:24 26.6 °F /  -3 °C 11.3 °F /  -11.5 °C 30.05in /  1017.5hPa SSW 5.0mph /  8km/h 10.0mph /  16.1km/h 52% 0.00in /  0mm
18:29 26.6 °F /  -3 °C 11.3 °F /  -11.5 °C 30.05in /  1017.5hPa SW 7.0mph /  11.3km/h 12.0mph /  19.3km/h 52% 0.00in /  0mm
18:34 26.6 °F /  -3 °C 11.8 °F /  -11.2 °C 30.05in /  1017.5hPa SSW 6.0mph /  9.7km/h 13.0mph /  20.9km/h 53% 0.00in /  0mm
18:39 26.7 °F /  -2.9 °C 11.9 °F /  -11.2 °C 30.05in /  1017.5hPa SSW 5.0mph /  8km/h 13.0mph /  20.9km/h 53% 0.00in /  0mm
18:44 26.7 °F /  -2.9 °C 11.9 °F /  -11.2 °C 30.05in /  1017.5hPa SSW 5.0mph /  8km/h 12.0mph /  19.3km/h 53% 0.00in /  0mm
18:49 26.5 °F /  -3.1 °C 12.1 °F /  -11.1 °C 30.05in /  1017.5hPa SSW 4.0mph /  6.4km/h 12.0mph /  19.3km/h 54% 0.00in /  0mm
18:54 26.6 °F /  -3 °C 12.2 °F /  -11 °C 30.05in /  1017.5hPa SW 7.0mph /  11.3km/h 12.0mph /  19.3km/h 54% 0.00in /  0mm
18:59 26.6 °F /  -3 °C 12.6 °F /  -10.8 °C 30.05in /  1017.5hPa SSW 6.0mph /  9.7km/h 13.0mph /  20.9km/h 55% 0.00in /  0mm
19:04 26.4 °F /  -3.1 °C 12.4 °F /  -10.9 °C 30.05in /  1017.5hPa SSW 5.0mph /  8km/h 13.0mph /  20.9km/h 55% 0.00in /  0mm
19:09 26.6 °F /  -3 °C 13.0 °F /  -10.6 °C 30.05in /  1017.5hPa SSW 6.0mph /  9.7km/h 14.0mph /  22.5km/h 56% 0.00in /  0mm
19:14 26.5 °F /  -3.1 °C 12.9 °F /  -10.6 °C 30.05in /  1017.5hPa SSW 5.0mph /  8km/h 14.0mph /  22.5km/h 56% 0.00in /  0mm
19:19 26.3 °F /  -3.2 °C 13.1 °F /  -10.5 °C 30.04in /  1017.2hPa SW 4.0mph /  6.4km/h 12.0mph /  19.3km/h 57% 0.00in /  0mm
19:24 26.2 °F /  -3.2 °C 13.0 °F /  -10.6 °C 30.05in /  1017.5hPa SSW 3.0mph /  4.8km/h 10.0mph /  16.1km/h 57% 0.00in /  0mm
19:29 26.2 °F /  -3.2 °C 13.0 °F /  -10.6 °C 30.05in /  1017.5hPa SSW 4.0mph /  6.4km/h 8.0mph /  12.9km/h 57% 0.00in /  0mm
19:40 26.1 °F /  -3.3 °C 13.3 °F /  -10.4 °C 30.04in /  1017.2hPa SW 4.0mph /  6.4km/h 9.0mph /  14.5km/h 58% 0.00in /  0mm
19:49 26.0 °F /  -3.3 °C 13.2 °F /  -10.4 °C 30.04in /  1017.2hPa SW 6.0mph /  9.7km/h 10.0mph /  16.1km/h 58% 0.00in /  0mm
19:54 25.9 °F /  -3.4 °C 13.5 °F /  -10.3 °C 30.04in /  1017.2hPa SSW 3.0mph /  4.8km/h 10.0mph /  16.1km/h 59% 0.00in /  0mm
19:59 25.9 °F /  -3.4 °C 13.5 °F /  -10.3 °C 30.04in /  1017.2hPa SW 4.0mph /  6.4km/h 9.0mph /  14.5km/h 59% 0.00in /  0mm
20:04 25.8 °F /  -3.4 °C 13.4 °F /  -10.3 °C 30.04in /  1017.2hPa SSW 4.0mph /  6.4km/h 9.0mph /  14.5km/h 59% 0.00in /  0mm
20:09 25.9 °F /  -3.4 °C 13.5 °F /  -10.3 °C 30.03in /  1016.8hPa SSW 5.0mph /  8km/h 9.0mph /  14.5km/h 59% 0.00in /  0mm
20:14 25.9 °F /  -3.4 °C 13.5 °F /  -10.3 °C 30.04in /  1017.2hPa SSW 5.0mph /  8km/h 9.0mph /  14.5km/h 59% 0.00in /  0mm
20:19 25.8 °F /  -3.4 °C 13.8 °F /  -10.1 °C 30.04in /  1017.2hPa SSW 5.0mph /  8km/h 9.0mph /  14.5km/h 60% 0.00in /  0mm
20:24 25.8 °F /  -3.4 °C 13.8 °F /  -10.1 °C 30.04in /  1017.2hPa SSW 3.0mph /  4.8km/h 10.0mph /  16.1km/h 60% 0.00in /  0mm
20:29 25.9 °F /  -3.4 °C 13.9 °F /  -10.1 °C 30.04in /  1017.2hPa SSW 5.0mph /  8km/h 10.0mph /  16.1km/h 60% 0.00in /  0mm
20:34 25.9 °F /  -3.4 °C 13.9 °F /  -10.1 °C 30.03in /  1016.8hPa SSW 5.0mph /  8km/h 9.0mph /  14.5km/h 60% 0.00in /  0mm
20:39 25.8 °F /  -3.4 °C 13.8 °F /  -10.1 °C 30.03in /  1016.8hPa SW 4.0mph /  6.4km/h 9.0mph /  14.5km/h 60% 0.00in /  0mm
20:44 26.1 °F /  -3.3 °C 14.1 °F /  -9.9 °C 30.03in /  1016.8hPa SSW 5.0mph /  8km/h 11.0mph /  17.7km/h 60% 0.00in /  0mm
20:49 25.9 °F /  -3.4 °C 13.9 °F /  -10.1 °C 30.03in /  1016.8hPa SW 5.0mph /  8km/h 11.0mph /  17.7km/h 60% 0.00in /  0mm
20:54 26.0 °F /  -3.3 °C 14.0 °F /  -10 °C 30.03in /  1016.8hPa SSW 5.0mph /  8km/h 9.0mph /  14.5km/h 60% 0.00in /  0mm
20:59 26.0 °F /  -3.3 °C 14.0 °F /  -10 °C 30.03in /  1016.8hPa SSW 4.0mph /  6.4km/h 9.0mph /  14.5km/h 60% 0.00in /  0mm
21:04 25.8 °F /  -3.4 °C 13.8 °F /  -10.1 °C 30.03in /  1016.8hPa SSW 3.0mph /  4.8km/h 9.0mph /  14.5km/h 60% 0.00in /  0mm
21:09 25.6 °F /  -3.6 °C 14.0 °F /  -10 °C 30.03in /  1016.8hPa SSW 3.0mph /  4.8km/h 8.0mph /  12.9km/h 61% 0.00in /  0mm
21:14 25.4 °F /  -3.7 °C 13.8 °F /  -10.1 °C 30.03in /  1016.8hPa SSW 3.0mph /  4.8km/h 8.0mph /  12.9km/h 61% 0.00in /  0mm
21:19 25.4 °F /  -3.7 °C 14.2 °F /  -9.9 °C 30.03in /  1016.8hPa SSW 5.0mph /  8km/h 8.0mph /  12.9km/h 62% 0.00in /  0mm
21:24 25.6 °F /  -3.6 °C 14.4 °F /  -9.8 °C 30.03in /  1016.8hPa SSW 4.0mph /  6.4km/h 8.0mph /  12.9km/h 62% 0.00in /  0mm
21:29 25.7 °F /  -3.5 °C 14.1 °F /  -9.9 °C 30.03in /  1016.8hPa SSW 4.0mph /  6.4km/h 8.0mph /  12.9km/h 61% 0.00in /  0mm
21:34 25.6 °F /  -3.6 °C 14.4 °F /  -9.8 °C 30.03in /  1016.8hPa SSW 4.0mph /  6.4km/h 8.0mph /  12.9km/h 62% 0.00in /  0mm
21:40 25.6 °F /  -3.6 °C 14.4 °F /  -9.8 °C 30.03in /  1016.8hPa SSW 3.0mph /  4.8km/h 7.0mph /  11.3km/h 62% 0.00in /  0mm
21:49 25.4 °F /  -3.7 °C 14.2 °F /  -9.9 °C 30.03in /  1016.8hPa SSW 4.0mph /  6.4km/h 8.0mph /  12.9km/h 62% 0.00in /  0mm
21:54 25.3 °F /  -3.7 °C 14.1 °F /  -9.9 °C 30.03in /  1016.8hPa SW 3.0mph /  4.8km/h 8.0mph /  12.9km/h 62% 0.00in /  0mm
21:59 25.0 °F /  -3.9 °C 14.2 °F /  -9.9 °C 30.03in /  1016.8hPa SW 3.0mph /  4.8km/h 6.0mph /  9.7km/h 63% 0.00in /  0mm
22:04 24.8 °F /  -4 °C 14.0 °F /  -10 °C 30.03in /  1016.8hPa SW 3.0mph /  4.8km/h 6.0mph /  9.7km/h 63% 0.00in /  0mm
22:09 24.7 °F /  -4.1 °C 13.9 °F /  -10.1 °C 30.02in /  1016.5hPa SSW 4.0mph /  6.4km/h 6.0mph /  9.7km/h 63% 0.00in /  0mm
22:14 24.9 °F /  -3.9 °C 14.1 °F /  -9.9 °C 30.02in /  1016.5hPa SSW 3.0mph /  4.8km/h 7.0mph /  11.3km/h 63% 0.00in /  0mm
22:19 24.9 °F /  -3.9 °C 14.1 °F /  -9.9 °C 30.02in /  1016.5hPa SSW 4.0mph /  6.4km/h 7.0mph /  11.3km/h 63% 0.00in /  0mm
22:24 25.1 °F /  -3.8 °C 13.9 °F /  -10.1 °C 30.02in /  1016.5hPa SSW 3.0mph /  4.8km/h 9.0mph /  14.5km/h 62% 0.00in /  0mm
22:29 25.0 °F /  -3.9 °C 14.2 °F /  -9.9 °C 30.02in /  1016.5hPa SSW 3.0mph /  4.8km/h 9.0mph /  14.5km/h 63% 0.00in /  0mm
22:34 24.9 °F /  -3.9 °C 14.1 °F /  -9.9 °C 30.02in /  1016.5hPa SW 3.0mph /  4.8km/h 7.0mph /  11.3km/h 63% 0.00in /  0mm
22:39 24.6 °F /  -4.1 °C 13.8 °F /  -10.1 °C 30.03in /  1016.8hPa WSW 2.0mph /  3.2km/h 7.0mph /  11.3km/h 63% 0.00in /  0mm
22:44 24.3 °F /  -4.3 °C 13.9 °F /  -10.1 °C 30.02in /  1016.5hPa WSW 2.0mph /  3.2km/h 8.0mph /  12.9km/h 64% 0.00in /  0mm
22:49 24.3 °F /  -4.3 °C 13.9 °F /  -10.1 °C 30.02in /  1016.5hPa WSW 1.0mph /  1.6km/h 8.0mph /  12.9km/h 64% 0.00in /  0mm
22:54 24.0 °F /  -4.4 °C 13.6 °F /  -10.2 °C 30.03in /  1016.8hPa WSW 2.0mph /  3.2km/h 5.0mph /  8km/h 64% 0.00in /  0mm
22:59 24.1 °F /  -4.4 °C 14.0 °F /  -10 °C 30.03in /  1016.8hPa WSW 3.0mph /  4.8km/h 5.0mph /  8km/h 65% 0.00in /  0mm
23:04 24.0 °F /  -4.4 °C 13.9 °F /  -10.1 °C 30.03in /  1016.8hPa SW 3.0mph /  4.8km/h 7.0mph /  11.3km/h 65% 0.00in /  0mm
23:09 23.8 °F /  -4.6 °C 14.1 °F /  -9.9 °C 30.03in /  1016.8hPa SW 4.0mph /  6.4km/h 7.0mph /  11.3km/h 66% 0.00in /  0mm
23:14 23.9 °F /  -4.5 °C 14.2 °F /  -9.9 °C 30.03in /  1016.8hPa SW 3.0mph /  4.8km/h 7.0mph /  11.3km/h 66% 0.00in /  0mm
23:19 23.9 °F /  -4.5 °C 14.2 °F /  -9.9 °C 30.03in /  1016.8hPa SW 3.0mph /  4.8km/h 7.0mph /  11.3km/h 66% 0.00in /  0mm
23:24 23.7 °F /  -4.6 °C 14.0 °F /  -10 °C 30.03in /  1016.8hPa SW 2.0mph /  3.2km/h 5.0mph /  8km/h 66% 0.00in /  0mm
23:29 23.8 °F /  -4.6 °C 14.1 °F /  -9.9 °C 30.02in /  1016.5hPa WSW 3.0mph /  4.8km/h 6.0mph /  9.7km/h 66% 0.00in /  0mm
23:34 23.5 °F /  -4.7 °C 14.2 °F /  -9.9 °C 30.03in /  1016.8hPa SW 2.0mph /  3.2km/h 6.0mph /  9.7km/h 67% 0.00in /  0mm
23:44 23.8 °F /  -4.6 °C 14.1 °F /  -9.9 °C 30.03in /  1016.8hPa SW 3.0mph /  4.8km/h 6.0mph /  9.7km/h 66% 0.00in /  0mm
23:49 23.9 °F /  -4.5 °C 14.2 °F /  -9.9 °C 30.03in /  1016.8hPa SW 3.0mph /  4.8km/h 5.0mph /  8km/h 66% 0.00in /  0mm
23:54 23.8 °F /  -4.6 °C 14.1 °F /  -9.9 °C 30.03in /  1016.8hPa West 3.0mph /  4.8km/h 6.0mph /  9.7km/h 66% 0.00in /  0mm
23:59 23.8 °F /  -4.6 °C 14.4 °F /  -9.8 °C 30.03in /  1016.8hPa SW 3.0mph /  4.8km/h 6.0mph /  9.7km/h 67% 0.00in /  0mm
Westford Weather
Compliments of Weather Underground

 
 
Current Radar Loop:

Copyright © WestfordWeather.net 2007-2014. All rights reserved.